createdAt,value
2018-03-30T00:02:29.246Z,93.79
2018-03-30T00:05:00.126Z,94.06
2018-03-30T00:07:30.962Z,94.35
2018-03-30T00:10:01.775Z,94.66
2018-03-30T00:12:32.608Z,94.91
2018-03-30T00:15:03.481Z,94.98
2018-03-30T00:17:34.329Z,95.16
2018-03-30T00:20:05.149Z,95.38
2018-03-30T00:22:35.998Z,95.54
2018-03-30T00:25:06.855Z,95.55
2018-03-30T00:27:37.669Z,95.59
2018-03-30T00:30:08.508Z,95.77
2018-03-30T00:32:39.358Z,95.98
2018-03-30T00:35:10.199Z,96.14
2018-03-30T00:37:41.018Z,96.25
2018-03-30T00:40:11.873Z,96.44
2018-03-30T00:42:42.771Z,96.64
2018-03-30T00:45:13.618Z,96.74
2018-03-30T00:47:44.459Z,96.93
2018-03-30T00:50:15.258Z,96.77
2018-03-30T00:52:46.115Z,96.74
2018-03-30T00:55:16.966Z,96.74
2018-03-30T00:57:47.841Z,96.68
2018-03-30T01:00:18.625Z,96.69
2018-03-30T01:02:49.513Z,96.69
2018-03-30T01:05:20.323Z,96.78
2018-03-30T01:07:51.154Z,96.79
2018-03-30T01:10:21.971Z,96.77
2018-03-30T01:12:52.810Z,96.74
2018-03-30T01:15:23.662Z,96.69
2018-03-30T01:17:54.538Z,96.68
2018-03-30T01:20:25.371Z,96.65
2018-03-30T01:22:56.205Z,96.67
2018-03-30T01:25:27.056Z,96.72
2018-03-30T01:27:57.926Z,96.76
2018-03-30T01:30:28.737Z,96.83
2018-03-30T01:32:59.603Z,96.90
2018-03-30T01:35:30.400Z,96.90
2018-03-30T01:38:01.226Z,96.90
2018-03-30T01:40:32.053Z,96.97
2018-03-30T01:43:02.907Z,97.07
2018-03-30T01:45:33.724Z,97.11
2018-03-30T01:48:04.585Z,97.08
2018-03-30T01:50:35.398Z,96.90
2018-03-30T01:53:06.246Z,96.83
2018-03-30T01:55:37.096Z,96.82
2018-03-30T01:58:07.918Z,96.79
2018-03-30T02:00:38.729Z,96.75
2018-03-30T02:03:09.578Z,96.71
2018-03-30T02:05:40.437Z,96.54
2018-03-30T02:08:11.335Z,96.39
2018-03-30T02:10:42.204Z,96.45
2018-03-30T02:13:13.073Z,96.41
2018-03-30T02:15:43.873Z,96.48
2018-03-30T02:18:14.762Z,96.52
2018-03-30T02:20:45.645Z,96.63
2018-03-30T02:23:16.477Z,96.62
2018-03-30T02:25:47.310Z,96.64
2018-03-30T02:28:18.132Z,96.72
2018-03-30T02:30:48.965Z,96.74
2018-03-30T02:33:19.778Z,96.85
2018-03-30T02:35:50.639Z,96.88
2018-03-30T02:38:21.499Z,96.89
2018-03-30T02:40:52.296Z,96.94
2018-03-30T02:43:23.138Z,96.98
2018-03-30T02:45:53.978Z,96.92
2018-03-30T02:48:24.818Z,96.77
2018-03-30T02:50:55.683Z,96.65
2018-03-30T02:53:26.591Z,96.66
2018-03-30T02:55:57.429Z,96.67
2018-03-30T02:58:28.245Z,96.64
2018-03-30T03:00:59.084Z,96.71
2018-03-30T03:03:29.958Z,96.92
2018-03-30T03:06:00.755Z,97.01
2018-03-30T03:08:31.610Z,97.02
2018-03-30T03:11:02.444Z,96.98
2018-03-30T03:13:33.285Z,97.05
2018-03-30T03:16:04.121Z,97.14
2018-03-30T03:18:34.985Z,97.29
2018-03-30T03:21:05.794Z,97.48
2018-03-30T03:23:36.645Z,97.41
2018-03-30T03:26:07.466Z,97.39
2018-03-30T03:28:38.302Z,97.41
2018-03-30T03:31:09.138Z,97.48
2018-03-30T03:33:39.967Z,97.55
2018-03-30T03:36:10.805Z,97.56
2018-03-30T03:38:41.611Z,97.67
2018-03-30T03:41:12.426Z,97.79
2018-03-30T03:43:43.258Z,97.81
2018-03-30T03:46:14.075Z,97.93
2018-03-30T03:48:44.884Z,98.00
2018-03-30T03:51:15.706Z,97.98
2018-03-30T03:53:46.583Z,98.06
2018-03-30T03:56:17.403Z,98.19
2018-03-30T03:58:48.203Z,98.10
2018-03-30T04:01:19.003Z,98.01
2018-03-30T04:03:49.836Z,98.10
2018-03-30T04:06:20.640Z,98.11
2018-03-30T04:08:51.473Z,98.15
2018-03-30T04:11:22.308Z,98.23
2018-03-30T04:13:53.208Z,98.33
2018-03-30T04:16:23.985Z,98.37
2018-03-30T04:18:54.805Z,98.43
2018-03-30T04:21:25.591Z,98.52
2018-03-30T04:23:56.424Z,98.50
2018-03-30T04:26:27.251Z,98.59
2018-03-30T04:28:58.130Z,98.71
2018-03-30T04:31:28.935Z,98.78
2018-03-30T04:33:59.789Z,98.83
2018-03-30T04:36:30.600Z,98.92
2018-03-30T04:39:01.436Z,98.90
2018-03-30T04:41:32.274Z,98.95
2018-03-30T04:44:03.149Z,98.99
2018-03-30T04:46:33.980Z,99.04
2018-03-30T04:49:04.818Z,99.04
2018-03-30T04:51:35.616Z,99.06
2018-03-30T04:54:06.466Z,99.12
2018-03-30T04:56:37.299Z,99.26
2018-03-30T04:59:08.136Z,99.26
2018-03-30T05:01:38.961Z,99.25
2018-03-30T05:04:09.813Z,99.31
2018-03-30T05:06:40.589Z,99.35
2018-03-30T05:09:11.480Z,99.39
2018-03-30T05:11:42.242Z,99.40
2018-03-30T05:14:13.103Z,99.39
2018-03-30T05:16:43.893Z,99.41
2018-03-30T05:19:14.727Z,99.47
2018-03-30T05:21:45.560Z,99.41
2018-03-30T05:24:16.405Z,99.35
2018-03-30T05:26:47.226Z,99.40
2018-03-30T05:29:18.118Z,99.45
2018-03-30T05:31:48.933Z,99.48
2018-03-30T05:34:19.883Z,99.46
2018-03-30T05:36:50.672Z,99.51
2018-03-30T05:39:21.519Z,99.50
2018-03-30T05:41:52.357Z,99.45
2018-03-30T05:44:23.216Z,99.49
2018-03-30T05:46:54.025Z,99.53
2018-03-30T05:49:24.866Z,99.58
2018-03-30T05:51:55.662Z,99.55
2018-03-30T05:54:26.483Z,99.52
2018-03-30T05:56:57.295Z,99.42
2018-03-30T05:59:28.113Z,99.33
2018-03-30T06:01:58.901Z,99.34
2018-03-30T06:04:29.727Z,99.33
2018-03-30T06:07:00.538Z,98.99
2018-03-30T06:09:31.423Z,98.42
2018-03-30T06:12:02.292Z,97.84
2018-03-30T06:14:33.151Z,97.65
2018-03-30T06:17:03.980Z,97.44
2018-03-30T06:19:34.825Z,97.19
2018-03-30T06:22:05.675Z,96.95
2018-03-30T06:24:36.491Z,96.41
2018-03-30T06:27:07.304Z,96.03
2018-03-30T06:29:38.118Z,95.56
2018-03-30T06:32:08.931Z,95.06
2018-03-30T06:34:39.765Z,94.78
2018-03-30T06:37:10.607Z,94.48
2018-03-30T06:39:41.485Z,94.56
2018-03-30T06:42:12.299Z,94.17
2018-03-30T06:44:43.130Z,94.13
2018-03-30T06:47:13.919Z,94.11
2018-03-30T06:49:44.722Z,94.30
2018-03-30T06:52:15.534Z,93.85
2018-03-30T06:54:46.355Z,93.35
2018-03-30T06:57:17.163Z,93.21
2018-03-30T06:59:47.992Z,92.95
2018-03-30T07:02:18.811Z,92.47
2018-03-30T07:04:49.674Z,91.66
2018-03-30T07:10:15.278Z,88.02
2018-03-30T07:12:46.071Z,85.08
2018-03-30T07:15:16.909Z,82.40
2018-03-30T07:17:47.729Z,82.89
2018-03-30T07:20:18.551Z,81.92
2018-03-30T07:22:49.382Z,81.03
2018-03-30T07:25:20.251Z,72.77
2018-03-30T07:27:51.111Z,70.96
2018-03-30T07:30:21.926Z,69.43
2018-03-30T07:32:52.842Z,66.55
2018-03-30T07:35:23.677Z,66.50
2018-03-30T07:37:54.500Z,63.55
2018-03-30T07:40:25.293Z,62.56
2018-03-30T07:42:56.110Z,61.88
2018-03-30T07:45:26.963Z,59.30
2018-03-30T07:47:57.764Z,60.23
2018-03-30T07:50:28.656Z,58.25
2018-03-30T07:52:59.462Z,56.91
2018-03-30T07:55:30.261Z,56.06
2018-03-30T07:58:02.125Z,56.74
2018-03-30T08:00:32.968Z,56.69
2018-03-30T08:03:03.775Z,56.14
2018-03-30T08:05:34.617Z,55.00
2018-03-30T08:08:05.432Z,54.07
2018-03-30T08:10:36.212Z,57.27
2018-03-30T08:13:07.073Z,61.21
2018-03-30T08:15:37.919Z,62.13
2018-03-30T08:18:08.762Z,63.10
2018-03-30T08:20:39.592Z,58.88
2018-03-30T08:23:10.377Z,61.86
2018-03-30T08:25:41.224Z,62.24
2018-03-30T08:28:12.027Z,63.82
2018-03-30T08:30:42.879Z,63.37
2018-03-30T08:33:13.697Z,64.10
2018-03-30T08:35:44.515Z,62.86
2018-03-30T08:38:15.380Z,61.76
2018-03-30T08:40:46.217Z,63.52
2018-03-30T08:43:17.061Z,64.70
2018-03-30T08:45:47.917Z,64.48
2018-03-30T08:48:18.768Z,63.21
2018-03-30T08:50:49.707Z,62.04
2018-03-30T08:53:20.521Z,61.17
2018-03-30T08:55:51.398Z,60.52
2018-03-30T08:58:22.185Z,57.30
2018-03-30T09:00:53.071Z,59.20
2018-03-30T09:03:23.912Z,56.61
2018-03-30T09:05:54.709Z,57.00
2018-03-30T09:08:25.583Z,60.19
2018-03-30T09:10:56.393Z,60.55
2018-03-30T09:13:27.226Z,59.73
2018-03-30T09:15:58.051Z,60.23
2018-03-30T09:18:28.891Z,61.31
2018-03-30T09:20:59.732Z,60.07
2018-03-30T09:23:31.585Z,57.81
2018-03-30T09:26:02.461Z,58.69
2018-03-30T09:28:33.241Z,59.51
2018-03-30T09:31:04.098Z,59.99
2018-03-30T09:33:34.918Z,56.21
2018-03-30T09:36:05.739Z,56.17
2018-03-30T09:38:36.654Z,57.99
2018-03-30T09:41:07.514Z,59.04
2018-03-30T09:43:38.491Z,58.77
2018-03-30T09:46:09.331Z,57.88
2018-03-30T09:48:40.114Z,56.76
2018-03-30T09:51:11.017Z,57.37
2018-03-30T09:53:42.933Z,54.46
2018-03-30T09:56:14.815Z,55.02
2018-03-30T09:58:45.735Z,52.31
2018-03-30T10:01:18.672Z,53.28
2018-03-30T10:03:49.552Z,55.04
2018-03-30T10:06:20.398Z,57.18
2018-03-30T10:08:51.198Z,58.87
2018-03-30T10:11:22.030Z,56.88
2018-03-30T10:13:59.957Z,58.14
2018-03-30T10:16:30.798Z,54.85
2018-03-30T10:19:01.650Z,54.34
2018-03-30T10:21:32.570Z,52.51
2018-03-30T10:24:03.407Z,53.08
2018-03-30T10:26:34.319Z,53.29
2018-03-30T10:29:05.187Z,51.15
2018-03-30T10:31:36.021Z,51.56
2018-03-30T10:34:06.814Z,51.76
2018-03-30T10:36:37.820Z,51.34
2018-03-30T10:39:08.642Z,50.65
2018-03-30T10:41:39.467Z,50.56
2018-03-30T10:44:10.336Z,49.34
2018-03-30T10:46:41.217Z,48.71
2018-03-30T10:49:12.054Z,48.56
2018-03-30T10:51:42.893Z,48.71
2018-03-30T10:54:13.863Z,51.28
2018-03-30T10:56:44.725Z,53.00
2018-03-30T10:59:15.579Z,50.79
2018-03-30T11:01:46.400Z,49.84
2018-03-30T11:04:17.254Z,51.58
2018-03-30T11:06:48.132Z,51.06
2018-03-30T11:09:18.971Z,51.35
2018-03-30T11:11:49.853Z,52.60
2018-03-30T11:14:20.659Z,52.27
2018-03-30T11:16:51.490Z,56.00
2018-03-30T11:19:22.337Z,54.91
2018-03-30T11:21:53.168Z,54.71
2018-03-30T11:24:23.952Z,55.37
2018-03-30T11:26:54.758Z,54.11
2018-03-30T11:29:25.595Z,53.98
2018-03-30T11:31:56.424Z,53.49
2018-03-30T11:34:27.203Z,54.88
2018-03-30T11:36:57.989Z,54.73
2018-03-30T11:39:28.778Z,53.52
2018-03-30T11:41:59.615Z,52.50
2018-03-30T11:44:30.398Z,54.73
2018-03-30T11:47:01.243Z,54.11
2018-03-30T11:49:32.049Z,52.27
2018-03-30T11:52:02.882Z,51.95
2018-03-30T11:54:33.686Z,52.29
2018-03-30T11:57:04.507Z,53.43
2018-03-30T11:59:35.303Z,50.94
2018-03-30T12:02:06.188Z,51.84
2018-03-30T12:04:37.038Z,53.05
2018-03-30T12:07:07.857Z,53.93
2018-03-30T12:09:38.648Z,53.30
2018-03-30T12:12:09.474Z,53.47
2018-03-30T12:14:40.307Z,52.64
2018-03-30T12:17:11.123Z,52.32
2018-03-30T12:19:41.943Z,53.71
2018-03-30T12:22:12.771Z,54.21
2018-03-30T12:24:43.570Z,52.77
2018-03-30T12:27:14.427Z,52.21
2018-03-30T12:29:45.234Z,51.25
2018-03-30T12:32:16.038Z,50.39
2018-03-30T12:34:46.851Z,51.17
2018-03-30T12:37:18.044Z,50.52
2018-03-30T12:39:48.899Z,50.91
2018-03-30T12:42:19.758Z,50.67
2018-03-30T12:44:50.567Z,51.11
2018-03-30T12:47:21.394Z,50.93
2018-03-30T12:49:52.223Z,50.85
2018-03-30T12:52:23.075Z,49.45
2018-03-30T12:54:53.909Z,49.63
2018-03-30T12:57:24.733Z,50.80
2018-03-30T12:59:55.585Z,48.44
2018-03-30T13:02:26.422Z,48.34
2018-03-30T13:04:57.251Z,47.42
2018-03-30T13:07:28.092Z,47.18
2018-03-30T13:09:58.914Z,45.52
2018-03-30T13:12:29.748Z,47.50
2018-03-30T13:15:00.586Z,45.41
2018-03-30T13:17:31.431Z,43.35
2018-03-30T13:20:02.316Z,43.35
2018-03-30T13:22:33.228Z,41.33
2018-03-30T13:25:04.046Z,39.44
2018-03-30T13:27:34.919Z,41.17
2018-03-30T13:30:05.746Z,42.19
2018-03-30T13:32:37.663Z,44.08
2018-03-30T13:35:08.512Z,45.47
2018-03-30T13:37:39.436Z,42.68
2018-03-30T13:40:10.309Z,39.11
2018-03-30T13:42:41.219Z,38.48
2018-03-30T13:45:12.056Z,36.69
2018-03-30T13:47:42.886Z,37.96
2018-03-30T13:50:16.416Z,37.72
2018-03-30T13:52:54.221Z,40.22
2018-03-30T13:55:25.071Z,42.70
2018-03-30T13:57:57.815Z,41.58
2018-03-30T14:00:29.600Z,41.36
2018-03-30T14:06:23.026Z,44.68
2018-03-30T14:09:12.603Z,43.57
2018-03-30T14:11:54.308Z,41.78
2018-03-30T14:14:25.163Z,41.83
2018-03-30T14:16:58.866Z,38.35
2018-03-30T14:19:29.706Z,38.93
2018-03-30T14:22:11.574Z,38.95
2018-03-30T14:24:50.124Z,35.76
2018-03-30T14:27:22.877Z,39.14
2018-03-30T14:29:57.689Z,40.60
2018-03-30T14:32:28.543Z,40.75
2018-03-30T14:38:01.066Z,36.10
2018-03-30T14:40:31.926Z,34.42
2018-03-30T14:43:03.775Z,34.84
2018-03-30T14:45:34.646Z,34.28
2018-03-30T14:48:06.228Z,35.73
2018-03-30T14:50:42.012Z,34.90
2018-03-30T14:53:17.680Z,36.39
2018-03-30T14:55:52.373Z,36.73
2018-03-30T14:58:27.125Z,37.13
2018-03-30T15:00:59.883Z,36.29
2018-03-30T15:03:42.609Z,35.23
2018-03-30T15:06:30.286Z,35.88
2018-03-30T15:12:23.903Z,37.30
2018-03-30T15:17:53.345Z,36.26
2018-03-30T15:20:32.170Z,33.79
2018-03-30T15:23:07.058Z,34.52
2018-03-30T15:28:39.819Z,32.66
2018-03-30T15:34:19.528Z,37.77
2018-03-30T15:36:54.147Z,39.88
2018-03-30T15:39:25.015Z,38.74
2018-03-30T15:41:58.832Z,39.40
2018-03-30T15:44:29.676Z,40.56
2018-03-30T15:47:01.437Z,40.55
2018-03-30T15:49:33.240Z,41.16
2018-03-30T15:52:07.833Z,41.34
2018-03-30T15:54:38.669Z,42.73
2018-03-30T15:57:09.501Z,42.90
2018-03-30T15:59:40.452Z,43.85
2018-03-30T16:02:11.355Z,44.11
2018-03-30T16:04:43.222Z,43.38
2018-03-30T16:07:14.038Z,44.63
2018-03-30T16:09:52.613Z,45.63
2018-03-30T16:12:27.183Z,45.21
2018-03-30T16:14:57.991Z,44.26
2018-03-30T16:17:28.805Z,44.30
2018-03-30T16:19:59.465Z,44.88
2018-03-30T16:22:30.138Z,45.07
2018-03-30T16:25:00.762Z,44.73
2018-03-30T16:27:31.445Z,44.84
2018-03-30T16:30:02.157Z,44.96
2018-03-30T16:32:32.838Z,45.58
2018-03-30T16:35:03.514Z,44.64
2018-03-30T16:37:34.213Z,44.81
2018-03-30T16:40:04.870Z,44.92
2018-03-30T16:42:35.560Z,45.10
2018-03-30T16:45:06.234Z,45.19
2018-03-30T16:47:36.964Z,45.49
2018-03-30T16:50:07.644Z,45.54
2018-03-30T16:52:38.387Z,45.72
2018-03-30T16:55:09.060Z,45.36
2018-03-30T16:57:39.725Z,45.69
2018-03-30T17:00:10.405Z,46.32
2018-03-30T17:02:41.094Z,46.13
2018-03-30T17:05:11.781Z,46.51
2018-03-30T17:07:43.449Z,47.12
2018-03-30T17:10:14.101Z,47.23
2018-03-30T17:12:44.791Z,48.04
2018-03-30T17:15:15.443Z,47.90
2018-03-30T17:17:46.110Z,48.27
2018-03-30T17:20:16.865Z,48.43
2018-03-30T17:22:47.546Z,48.58
2018-03-30T17:25:18.251Z,50.02
2018-03-30T17:27:48.933Z,50.36
2018-03-30T17:30:19.637Z,51.05
2018-03-30T17:32:50.276Z,51.20
2018-03-30T17:35:21.054Z,51.55
2018-03-30T17:37:51.774Z,52.07
2018-03-30T17:40:22.448Z,52.57
2018-03-30T17:42:53.105Z,53.11
2018-03-30T17:45:23.746Z,53.71
2018-03-30T17:47:54.438Z,54.19
2018-03-30T17:50:25.106Z,54.83
2018-03-30T17:52:55.784Z,55.07
2018-03-30T17:55:26.441Z,55.54
2018-03-30T17:57:57.131Z,56.10
2018-03-30T18:00:27.844Z,56.87
2018-03-30T18:02:58.544Z,57.61
2018-03-30T18:05:29.204Z,57.01
2018-03-30T18:07:59.885Z,57.65
2018-03-30T18:10:30.539Z,56.78
2018-03-30T18:13:02.286Z,58.10
2018-03-30T18:15:32.965Z,58.63
2018-03-30T18:18:03.677Z,57.97
2018-03-30T18:20:34.331Z,57.95
2018-03-30T18:23:05.027Z,58.00
2018-03-30T18:25:35.780Z,58.41
2018-03-30T18:28:07.521Z,58.72
2018-03-30T18:30:38.182Z,60.66
2018-03-30T18:33:08.848Z,62.78
2018-03-30T18:35:39.515Z,63.69
2018-03-30T18:38:10.191Z,63.71
2018-03-30T18:40:40.896Z,63.73
2018-03-30T18:43:11.573Z,64.92
2018-03-30T18:45:42.245Z,65.23
2018-03-30T18:48:12.931Z,65.54
2018-03-30T18:50:43.613Z,64.30
2018-03-30T18:53:14.313Z,62.80
2018-03-30T18:55:44.984Z,62.53
2018-03-30T18:58:15.648Z,63.10
2018-03-30T19:00:46.453Z,63.44
2018-03-30T19:03:17.148Z,64.56
2018-03-30T19:05:47.843Z,65.00
2018-03-30T19:08:18.615Z,65.03
2018-03-30T19:10:49.294Z,64.71
2018-03-30T19:13:19.974Z,65.39
2018-03-30T19:15:50.756Z,65.27
2018-03-30T19:18:21.417Z,63.99
2018-03-30T19:20:52.124Z,63.10
2018-03-30T19:23:24.844Z,64.08
2018-03-30T19:25:55.562Z,66.25
2018-03-30T19:28:26.273Z,65.42
2018-03-30T19:30:56.926Z,65.31
2018-03-30T19:33:27.621Z,65.89
2018-03-30T19:35:58.289Z,64.70
2018-03-30T19:38:29.004Z,65.16
2018-03-30T19:40:59.736Z,65.37
2018-03-30T19:43:30.430Z,65.57
2018-03-30T19:46:01.141Z,65.06
2018-03-30T19:48:31.817Z,64.67
2018-03-30T19:51:02.486Z,64.98
2018-03-30T19:53:33.178Z,65.85
2018-03-30T19:56:03.859Z,66.25
2018-03-30T19:58:34.551Z,66.47
2018-03-30T20:01:05.208Z,66.80
2018-03-30T20:03:35.956Z,66.89
2018-03-30T20:06:06.670Z,66.37
2018-03-30T20:08:37.343Z,67.04
2018-03-30T20:11:08.039Z,67.13
2018-03-30T20:13:38.759Z,67.00
2018-03-30T20:16:09.406Z,66.91
2018-03-30T20:18:40.051Z,67.41
2018-03-30T20:21:10.682Z,66.71
2018-03-30T20:23:41.374Z,67.55
2018-03-30T20:26:12.065Z,67.12
2018-03-30T20:28:42.784Z,66.43
2018-03-30T20:31:13.430Z,67.24
2018-03-30T20:33:44.110Z,66.70
2018-03-30T20:36:14.775Z,67.09
2018-03-30T20:38:45.493Z,66.88
2018-03-30T20:41:16.129Z,66.92
2018-03-30T20:43:46.801Z,67.22
2018-03-30T20:46:17.478Z,66.80
2018-03-30T20:48:48.195Z,66.90
2018-03-30T20:51:18.864Z,67.10
2018-03-30T20:53:49.527Z,67.91
2018-03-30T20:56:20.214Z,68.12
2018-03-30T20:58:50.888Z,68.89
2018-03-30T21:01:21.532Z,70.32
2018-03-30T21:03:52.211Z,70.75
2018-03-30T21:06:22.877Z,72.37
2018-03-30T21:08:53.533Z,72.68
2018-03-30T21:11:24.196Z,73.14
2018-03-30T21:13:54.868Z,73.46
2018-03-30T21:16:25.528Z,73.55
2018-03-30T21:18:56.197Z,73.32
2018-03-30T21:21:26.881Z,73.21
2018-03-30T21:23:57.602Z,72.49
2018-03-30T21:26:28.290Z,72.93
2018-03-30T21:28:58.978Z,73.14
2018-03-30T21:31:29.703Z,72.83
2018-03-30T21:34:00.403Z,73.36
2018-03-30T21:36:31.082Z,73.33
2018-03-30T21:39:01.763Z,74.12
2018-03-30T21:41:32.429Z,74.48
2018-03-30T21:44:03.110Z,75.02
2018-03-30T21:46:33.779Z,75.79
2018-03-30T21:49:04.441Z,76.36
2018-03-30T21:51:35.170Z,76.88
2018-03-30T21:54:05.870Z,77.46
2018-03-30T21:56:36.538Z,77.94
2018-03-30T21:59:07.206Z,78.02
2018-03-30T22:01:37.892Z,76.92
2018-03-30T22:04:08.580Z,77.00
2018-03-30T22:06:39.261Z,76.95
2018-03-30T22:09:09.954Z,77.06
2018-03-30T22:11:40.623Z,77.57
2018-03-30T22:14:11.363Z,77.68
2018-03-30T22:16:42.021Z,77.74
2018-03-30T22:19:12.750Z,78.61
2018-03-30T22:21:43.413Z,79.06
2018-03-30T22:24:14.106Z,79.74
2018-03-30T22:26:44.803Z,79.99
2018-03-30T22:29:15.518Z,80.09
2018-03-30T22:31:46.209Z,79.57
2018-03-30T22:34:16.934Z,79.76
2018-03-30T22:36:47.616Z,79.70
2018-03-30T22:39:18.269Z,80.00
2018-03-30T22:41:48.943Z,80.41
2018-03-30T22:44:19.718Z,81.20
2018-03-30T22:46:50.345Z,81.46
2018-03-30T22:49:21.023Z,81.50
2018-03-30T22:51:51.756Z,81.68
2018-03-30T22:54:22.511Z,81.71
2018-03-30T22:56:53.199Z,81.90
2018-03-30T22:59:23.900Z,82.25
2018-03-30T23:01:54.567Z,82.10
2018-03-30T23:04:25.263Z,82.19
2018-03-30T23:06:55.910Z,82.67
2018-03-30T23:09:26.599Z,83.13
2018-03-30T23:11:57.279Z,83.62
2018-03-30T23:14:27.950Z,83.93
2018-03-30T23:16:58.608Z,84.09
2018-03-30T23:19:29.301Z,84.34
2018-03-30T23:21:59.952Z,84.35
2018-03-30T23:24:30.628Z,84.54
2018-03-30T23:27:01.271Z,85.15
2018-03-30T23:29:31.950Z,84.98
2018-03-30T23:32:02.604Z,84.60
2018-03-30T23:34:33.272Z,84.46
2018-03-30T23:37:03.959Z,84.50
2018-03-30T23:39:34.633Z,84.56
2018-03-30T23:42:05.265Z,84.89
2018-03-30T23:44:35.964Z,85.20
2018-03-30T23:47:06.652Z,85.26
2018-03-30T23:49:37.310Z,85.69
2018-03-30T23:52:07.980Z,85.91
2018-03-30T23:54:38.652Z,85.82
2018-03-30T23:57:09.307Z,85.84
2018-03-30T23:59:39.977Z,86.13
